Airport View

Enter AWOS ICAO identifier for current METAR.

ex. KFNL

KGYB 011155Z AUTO 00000KT 10SM CLR 13/11 A3012 RMK AO2 T01310114 10167 20131

1 Oct 2020 12:14

Frequency: 119.225

Phone: 979-542-0382

Other Area AWOS: K3T5 - KRWV - K11R - KEDC

TAF KAUS 011120Z 0112/0218 VRB02KT P6SM SKC FM011800 04007KT P6SM SKC